createdAt,value
2023-04-30T00:00:17.769Z,9.94
2023-04-30T00:02:44.947Z,9.93
2023-04-30T00:05:12.155Z,9.90
2023-04-30T00:07:42.726Z,9.88
2023-04-30T00:10:13.247Z,9.78
2023-04-30T00:12:41.651Z,9.75
2023-04-30T00:15:09.442Z,9.74
2023-04-30T00:17:37.650Z,9.69
2023-04-30T00:20:05.504Z,9.64
2023-04-30T00:22:33.798Z,9.70
2023-04-30T00:25:01.694Z,9.70
2023-04-30T00:27:32.133Z,9.66
2023-04-30T00:29:59.603Z,9.68
2023-04-30T00:32:28.978Z,9.70
2023-04-30T00:34:56.639Z,9.65
2023-04-30T00:37:25.065Z,9.52
2023-04-30T00:39:52.955Z,9.51
2023-04-30T00:42:21.495Z,9.53
2023-04-30T00:44:49.019Z,9.51
2023-04-30T00:47:16.587Z,9.49
2023-04-30T00:49:43.850Z,9.42
2023-04-30T00:52:12.367Z,9.40
2023-04-30T00:54:40.082Z,9.45
2023-04-30T00:57:10.033Z,9.48
2023-04-30T00:59:37.491Z,9.49
2023-04-30T01:02:04.953Z,9.51
2023-04-30T01:04:33.442Z,9.51
2023-04-30T01:07:02.580Z,9.44
2023-04-30T01:09:30.937Z,9.31
2023-04-30T01:12:07.996Z,9.28
2023-04-30T01:14:50.979Z,9.34
2023-04-30T01:17:34.730Z,9.29
2023-04-30T01:20:04.470Z,9.24
2023-04-30T01:22:52.187Z,9.23
2023-04-30T01:25:36.587Z,9.30
2023-04-30T01:28:09.958Z,9.30
2023-04-30T01:30:41.078Z,9.28
2023-04-30T01:33:09.560Z,9.30
2023-04-30T01:35:55.029Z,9.31
2023-04-30T01:38:35.144Z,9.35
2023-04-30T01:41:21.896Z,9.34
2023-04-30T01:44:33.316Z,9.24
2023-04-30T01:47:13.253Z,9.26
2023-04-30T01:50:02.898Z,9.21
2023-04-30T01:52:46.198Z,9.19
2023-04-30T01:55:27.842Z,9.15
2023-04-30T01:58:03.818Z,9.02
2023-04-30T02:00:34.218Z,9.09
2023-04-30T02:03:01.540Z,9.00
2023-04-30T02:05:29.191Z,9.04
2023-04-30T02:07:58.482Z,9.04
2023-04-30T02:10:27.302Z,9.03
2023-04-30T02:12:54.868Z,8.97
2023-04-30T02:15:23.341Z,8.88
2023-04-30T02:17:50.984Z,8.98
2023-04-30T02:20:18.704Z,8.91
2023-04-30T02:22:46.212Z,8.91
2023-04-30T02:25:14.729Z,8.94
2023-04-30T02:27:43.152Z,9.00
2023-04-30T02:30:10.784Z,8.95
2023-04-30T02:32:38.131Z,8.89
2023-04-30T02:35:11.239Z,8.99
2023-04-30T02:37:38.906Z,9.01
2023-04-30T02:40:07.658Z,8.97
2023-04-30T02:42:35.100Z,8.81
2023-04-30T02:45:02.745Z,8.91
2023-04-30T02:47:31.257Z,8.81
2023-04-30T02:49:58.292Z,8.83
2023-04-30T02:52:27.466Z,8.76
2023-04-30T02:54:56.035Z,8.72
2023-04-30T02:57:23.331Z,8.46
2023-04-30T02:59:50.882Z,8.29
2023-04-30T03:02:21.907Z,8.35
2023-04-30T03:04:50.035Z,8.39
2023-04-30T03:07:18.358Z,8.42
2023-04-30T03:09:46.905Z,8.43
2023-04-30T03:12:15.280Z,8.30
2023-04-30T03:14:42.815Z,8.29
2023-04-30T03:17:16.922Z,8.13
2023-04-30T03:19:45.466Z,7.92
2023-04-30T03:22:13.894Z,7.78
2023-04-30T03:24:41.493Z,7.91
2023-04-30T03:27:08.876Z,8.03
2023-04-30T03:29:36.565Z,8.09
2023-04-30T03:32:03.873Z,8.06
2023-04-30T03:34:32.747Z,8.19
2023-04-30T03:37:02.029Z,8.17
2023-04-30T03:39:29.160Z,8.16
2023-04-30T03:41:56.687Z,8.20
2023-04-30T03:44:24.162Z,8.27
2023-04-30T03:46:51.729Z,8.21
2023-04-30T03:49:18.984Z,7.94
2023-04-30T03:51:52.763Z,7.81
2023-04-30T03:54:21.524Z,7.48
2023-04-30T03:56:49.114Z,7.59
2023-04-30T03:59:16.692Z,7.52
2023-04-30T04:01:44.048Z,7.53
2023-04-30T04:04:11.893Z,7.79
2023-04-30T04:06:39.554Z,7.85
2023-04-30T04:09:13.024Z,7.77
2023-04-30T04:11:40.605Z,7.81
2023-04-30T04:14:07.966Z,7.84
2023-04-30T04:16:35.502Z,7.89
2023-04-30T04:19:04.968Z,7.89
2023-04-30T04:21:32.331Z,8.01
2023-04-30T04:23:59.980Z,8.00
2023-04-30T04:26:30.152Z,8.08
2023-04-30T04:28:57.437Z,8.07
2023-04-30T04:31:24.906Z,8.22
2023-04-30T04:33:58.346Z,8.28
2023-04-30T04:36:28.003Z,8.49
2023-04-30T04:38:57.935Z,8.46
2023-04-30T04:41:26.919Z,8.48
2023-04-30T04:43:54.470Z,8.72
2023-04-30T04:46:23.002Z,8.60
2023-04-30T04:48:50.372Z,8.61
2023-04-30T04:51:18.847Z,8.72
2023-04-30T04:53:47.627Z,8.75
2023-04-30T04:56:14.788Z,8.75
2023-04-30T04:58:42.868Z,8.85
2023-04-30T05:01:10.768Z,9.01
2023-04-30T05:03:37.965Z,8.99
2023-04-30T05:06:06.516Z,9.08
2023-04-30T05:08:33.684Z,9.14
2023-04-30T05:11:01.207Z,9.16
2023-04-30T05:13:28.255Z,9.17
2023-04-30T05:15:56.090Z,9.10
2023-04-30T05:18:30.631Z,9.20
2023-04-30T05:20:57.997Z,9.23
2023-04-30T05:23:25.749Z,9.36
2023-04-30T05:26:00.127Z,9.47
2023-04-30T05:28:27.677Z,9.54
2023-04-30T05:30:55.016Z,9.54
2023-04-30T05:33:22.497Z,9.65
2023-04-30T05:35:49.946Z,9.72
2023-04-30T05:38:17.428Z,9.68
2023-04-30T05:40:44.896Z,9.67
2023-04-30T05:43:14.378Z,9.83
2023-04-30T05:45:41.905Z,9.79
2023-04-30T05:48:09.334Z,9.73
2023-04-30T05:50:36.795Z,9.86
2023-04-30T05:53:04.272Z,9.95
2023-04-30T05:55:32.664Z,10.02
2023-04-30T05:58:00.251Z,10.05
2023-04-30T06:00:28.695Z,10.13
2023-04-30T06:02:55.918Z,10.00
2023-04-30T06:05:23.673Z,10.06
2023-04-30T06:07:52.100Z,10.17
2023-04-30T06:10:21.553Z,10.24
2023-04-30T06:12:49.016Z,10.31
2023-04-30T06:15:16.531Z,10.32
2023-04-30T06:17:43.988Z,10.47
2023-04-30T06:20:14.979Z,10.59
2023-04-30T06:22:42.591Z,10.62
2023-04-30T06:25:10.262Z,10.59
2023-04-30T06:27:39.824Z,10.49
2023-04-30T06:30:07.912Z,10.58
2023-04-30T06:32:35.638Z,10.66
2023-04-30T06:35:04.063Z,10.57
2023-04-30T06:37:38.190Z,10.79
2023-04-30T06:40:07.677Z,10.96
2023-04-30T06:42:36.408Z,10.87
2023-04-30T06:45:04.686Z,10.90
2023-04-30T06:47:36.567Z,10.95
2023-04-30T06:50:05.222Z,11.03
2023-04-30T06:52:32.727Z,11.19
2023-04-30T06:55:02.429Z,11.11
2023-04-30T06:57:31.474Z,11.22
2023-04-30T06:59:58.802Z,11.12
2023-04-30T07:02:27.954Z,11.04
2023-04-30T07:04:55.633Z,11.08
2023-04-30T07:07:30.342Z,11.21
2023-04-30T07:09:59.848Z,11.49
2023-04-30T07:12:27.308Z,11.72
2023-04-30T07:14:57.723Z,11.87
2023-04-30T07:17:27.468Z,11.99
2023-04-30T07:19:55.472Z,11.68
2023-04-30T07:22:24.217Z,11.46
2023-04-30T07:24:52.693Z,11.53
2023-04-30T07:27:20.129Z,11.66
2023-04-30T07:29:47.570Z,11.72
2023-04-30T07:32:16.770Z,11.85
2023-04-30T07:34:45.249Z,12.05
2023-04-30T07:37:13.866Z,12.27
2023-04-30T07:39:41.732Z,12.59
2023-04-30T07:42:09.078Z,12.69
2023-04-30T07:44:38.660Z,12.45
2023-04-30T07:47:05.946Z,12.12
2023-04-30T07:49:33.401Z,12.09
2023-04-30T07:52:01.777Z,12.18
2023-04-30T07:54:29.516Z,12.24
2023-04-30T07:57:03.867Z,12.40
2023-04-30T07:59:33.508Z,12.47
2023-04-30T08:02:03.076Z,12.76
2023-04-30T08:04:30.489Z,12.85
2023-04-30T08:06:57.925Z,12.79
2023-04-30T08:09:27.351Z,12.98
2023-04-30T08:11:54.940Z,13.17
2023-04-30T08:14:22.410Z,13.48
2023-04-30T08:16:49.772Z,13.15
2023-04-30T08:19:17.220Z,12.70
2023-04-30T08:21:49.039Z,12.71
2023-04-30T08:24:16.218Z,12.88
2023-04-30T08:26:43.693Z,12.58
2023-04-30T08:29:11.301Z,12.66
2023-04-30T08:31:40.765Z,12.80
2023-04-30T08:34:08.039Z,13.04
2023-04-30T08:36:35.519Z,13.23
2023-04-30T08:39:03.002Z,13.10
2023-04-30T08:41:36.556Z,13.22
2023-04-30T08:44:06.292Z,13.58
2023-04-30T08:46:39.615Z,13.84
2023-04-30T08:49:07.723Z,13.92
2023-04-30T08:51:37.294Z,13.78
2023-04-30T08:54:13.520Z,13.29
2023-04-30T08:56:41.744Z,13.05
2023-04-30T08:59:09.560Z,13.18
2023-04-30T09:01:37.783Z,13.64
2023-04-30T09:04:07.077Z,13.78
2023-04-30T09:06:34.941Z,13.57
2023-04-30T09:09:16.568Z,13.44
2023-04-30T09:11:46.029Z,13.14
2023-04-30T09:14:13.466Z,13.18
2023-04-30T09:16:49.615Z,13.46
2023-04-30T09:19:31.031Z,13.55
2023-04-30T09:22:00.458Z,13.58
2023-04-30T09:24:45.741Z,13.71
2023-04-30T09:27:22.754Z,14.26
2023-04-30T09:29:50.543Z,14.62
2023-04-30T09:32:24.121Z,14.86
2023-04-30T09:34:51.831Z,14.86
2023-04-30T09:37:20.506Z,14.87
2023-04-30T09:40:01.184Z,14.91
2023-04-30T09:42:28.771Z,15.06
2023-04-30T09:44:56.272Z,14.72
2023-04-30T09:47:32.148Z,14.77
2023-04-30T09:50:00.971Z,14.79
2023-04-30T09:52:28.376Z,15.41
2023-04-30T09:54:55.797Z,15.66
2023-04-30T09:57:24.796Z,15.88
2023-04-30T09:59:55.562Z,15.99
2023-04-30T10:02:26.775Z,15.53
2023-04-30T10:04:58.521Z,15.58
2023-04-30T10:07:33.122Z,15.68
2023-04-30T10:10:07.922Z,15.97
2023-04-30T10:12:40.987Z,16.20
2023-04-30T10:15:31.390Z,15.90
2023-04-30T10:18:06.212Z,16.14
2023-04-30T10:20:39.873Z,16.36
2023-04-30T10:23:08.749Z,16.76
2023-04-30T10:25:39.238Z,17.06
2023-04-30T10:28:09.053Z,16.97
2023-04-30T10:30:37.626Z,17.02
2023-04-30T10:33:37.967Z,16.80
2023-04-30T10:36:11.667Z,16.70
2023-04-30T10:38:39.027Z,17.05
2023-04-30T10:41:07.974Z,16.72
2023-04-30T10:43:36.829Z,16.17
2023-04-30T10:46:05.135Z,16.61
2023-04-30T10:48:39.121Z,17.26
2023-04-30T10:51:09.037Z,17.72
2023-04-30T10:53:37.304Z,17.91
2023-04-30T10:56:07.085Z,18.24
2023-04-30T10:58:40.831Z,18.19
2023-04-30T11:01:18.018Z,18.47
2023-04-30T11:04:06.916Z,18.68
2023-04-30T11:07:11.213Z,18.45
2023-04-30T11:09:44.640Z,18.04
2023-04-30T11:12:28.708Z,17.21
2023-04-30T11:15:12.845Z,17.65
2023-04-30T11:17:40.320Z,18.48
2023-04-30T11:20:12.716Z,18.66
2023-04-30T11:22:40.074Z,18.98
2023-04-30T11:25:11.163Z,19.39
2023-04-30T11:27:45.960Z,19.55
2023-04-30T11:30:17.614Z,19.65
2023-04-30T11:32:48.012Z,19.58
2023-04-30T11:35:19.422Z,19.18
2023-04-30T11:37:57.067Z,19.06
2023-04-30T11:40:24.910Z,19.22
2023-04-30T11:42:52.438Z,19.90
2023-04-30T11:45:23.625Z,20.12
2023-04-30T11:47:54.289Z,20.06
2023-04-30T11:50:33.208Z,20.51
2023-04-30T11:53:05.731Z,21.27
2023-04-30T11:55:33.499Z,21.51
2023-04-30T11:58:00.853Z,20.48
2023-04-30T12:00:31.839Z,20.26
2023-04-30T12:03:01.976Z,20.43
2023-04-30T12:05:29.573Z,20.29
2023-04-30T12:07:59.838Z,20.29
2023-04-30T12:10:27.620Z,20.47
2023-04-30T12:12:56.802Z,20.95
2023-04-30T12:15:27.482Z,20.85
2023-04-30T12:17:57.848Z,21.00
2023-04-30T12:20:29.749Z,21.18
2023-04-30T12:22:58.883Z,21.45
2023-04-30T12:25:29.658Z,21.69
2023-04-30T12:27:59.808Z,21.69
2023-04-30T12:30:30.773Z,21.82
2023-04-30T12:33:00.405Z,22.10
2023-04-30T12:35:31.861Z,22.45
2023-04-30T12:38:04.847Z,22.23
2023-04-30T12:40:35.258Z,21.84
2023-04-30T12:43:06.563Z,22.33
2023-04-30T12:46:04.247Z,21.99
2023-04-30T12:48:46.761Z,22.07
2023-04-30T12:51:20.589Z,22.05
2023-04-30T12:53:49.835Z,22.06
2023-04-30T12:56:18.123Z,21.99
2023-04-30T12:58:51.472Z,22.34
2023-04-30T13:01:24.729Z,22.18
2023-04-30T13:03:53.929Z,22.01
2023-04-30T13:06:25.608Z,21.12
2023-04-30T13:08:58.913Z,20.84
2023-04-30T13:11:27.306Z,21.20
2023-04-30T13:13:56.313Z,21.22
2023-04-30T13:16:25.376Z,21.23
2023-04-30T13:18:53.074Z,21.62
2023-04-30T13:21:21.660Z,21.64
2023-04-30T13:23:53.399Z,21.76
2023-04-30T13:26:23.729Z,21.92
2023-04-30T13:28:51.465Z,22.24
2023-04-30T13:31:18.856Z,22.36
2023-04-30T13:33:46.059Z,22.36
2023-04-30T13:36:13.503Z,22.24
2023-04-30T13:38:42.046Z,21.44
2023-04-30T13:41:10.361Z,21.67
2023-04-30T13:43:42.056Z,21.38
2023-04-30T13:46:10.053Z,21.76
2023-04-30T13:48:38.523Z,21.53
2023-04-30T13:51:05.950Z,21.24
2023-04-30T13:53:33.406Z,21.36
2023-04-30T13:56:00.912Z,21.82
2023-04-30T13:58:29.362Z,22.16
2023-04-30T14:00:56.885Z,22.36
2023-04-30T14:03:24.172Z,22.13
2023-04-30T14:05:51.915Z,21.72
2023-04-30T14:08:20.554Z,21.94
2023-04-30T14:10:49.180Z,22.22
2023-04-30T14:13:16.568Z,22.58
2023-04-30T14:15:44.212Z,22.50
2023-04-30T14:18:11.514Z,22.51
2023-04-30T14:20:39.510Z,22.60
2023-04-30T14:23:13.061Z,22.57
2023-04-30T14:25:40.970Z,22.77
2023-04-30T14:28:08.448Z,22.81
2023-04-30T14:30:35.982Z,22.55
2023-04-30T14:33:03.470Z,22.46
2023-04-30T14:35:30.849Z,22.49
2023-04-30T14:37:59.403Z,23.00
2023-04-30T14:40:26.816Z,22.60
2023-04-30T14:42:54.278Z,23.04
2023-04-30T14:45:21.825Z,23.36
2023-04-30T14:47:50.201Z,23.29
2023-04-30T14:50:17.693Z,23.14
2023-04-30T14:52:47.401Z,22.96
2023-04-30T14:55:14.685Z,22.86
2023-04-30T14:57:42.131Z,22.66
2023-04-30T15:00:12.478Z,22.82
2023-04-30T15:02:40.929Z,22.81
2023-04-30T15:05:09.927Z,22.49
2023-04-30T15:07:37.232Z,22.59
2023-04-30T15:10:06.963Z,22.62
2023-04-30T15:12:35.993Z,22.74
2023-04-30T15:15:05.034Z,22.97
2023-04-30T15:17:37.377Z,23.16
2023-04-30T15:20:05.593Z,22.82
2023-04-30T15:22:36.476Z,22.32
2023-04-30T15:25:04.279Z,22.25
2023-04-30T15:27:33.920Z,22.59
2023-04-30T15:30:01.629Z,22.55
2023-04-30T15:32:29.055Z,22.34
2023-04-30T15:34:56.431Z,21.87
2023-04-30T15:37:24.952Z,21.93
2023-04-30T15:39:53.720Z,21.75
2023-04-30T15:42:21.443Z,21.62
2023-04-30T15:44:48.893Z,20.80
2023-04-30T15:47:16.352Z,20.27
2023-04-30T15:49:44.949Z,19.74
2023-04-30T15:52:12.296Z,20.24
2023-04-30T15:54:40.987Z,20.47
2023-04-30T15:57:14.376Z,20.30
2023-04-30T15:59:42.832Z,20.20
2023-04-30T16:02:10.318Z,20.51
2023-04-30T16:04:37.755Z,20.39
2023-04-30T16:07:05.488Z,20.75
2023-04-30T16:09:35.022Z,20.93
2023-04-30T16:12:02.482Z,20.69
2023-04-30T16:14:30.105Z,20.74
2023-04-30T16:16:57.735Z,20.64
2023-04-30T16:19:26.087Z,20.50
2023-04-30T16:21:53.676Z,20.49
2023-04-30T16:24:22.101Z,20.63
2023-04-30T16:26:55.021Z,20.43
2023-04-30T16:29:22.531Z,20.28
2023-04-30T16:31:50.123Z,20.28
2023-04-30T16:34:17.573Z,20.26
2023-04-30T16:36:46.410Z,20.15
2023-04-30T16:39:17.042Z,20.01
2023-04-30T16:41:45.410Z,19.58
2023-04-30T16:44:13.190Z,18.26
2023-04-30T16:46:41.680Z,17.86
2023-04-30T16:49:08.918Z,17.81
2023-04-30T16:51:36.537Z,17.44
2023-04-30T16:54:04.811Z,17.63
2023-04-30T16:56:33.286Z,17.70
2023-04-30T16:59:00.835Z,17.82
2023-04-30T17:01:30.041Z,17.90
2023-04-30T17:03:57.232Z,17.97
2023-04-30T17:06:24.726Z,17.78
2023-04-30T17:08:53.778Z,17.74
2023-04-30T17:11:22.632Z,17.59
2023-04-30T17:13:50.227Z,17.45
2023-04-30T17:16:20.013Z,17.25
2023-04-30T17:18:48.045Z,17.24
2023-04-30T17:21:16.310Z,17.20
2023-04-30T17:23:44.543Z,17.15
2023-04-30T17:26:13.236Z,17.16
2023-04-30T17:28:42.065Z,17.17
2023-04-30T17:31:09.709Z,17.16
2023-04-30T17:33:38.185Z,17.12
2023-04-30T17:36:06.549Z,17.01
2023-04-30T17:38:34.431Z,16.81
2023-04-30T17:41:02.155Z,16.67
2023-04-30T17:43:30.506Z,16.42
2023-04-30T17:45:59.604Z,16.28
2023-04-30T17:48:27.641Z,16.14
2023-04-30T17:50:56.305Z,16.03
2023-04-30T17:53:24.183Z,15.90
2023-04-30T17:55:52.110Z,15.71
2023-04-30T17:58:20.167Z,15.53
2023-04-30T18:00:49.837Z,15.40
2023-04-30T18:03:18.257Z,15.32
2023-04-30T18:05:47.258Z,15.21
2023-04-30T18:08:14.876Z,15.14
2023-04-30T18:10:45.464Z,14.96
2023-04-30T18:13:12.616Z,14.90
2023-04-30T18:15:40.247Z,14.83
2023-04-30T18:18:07.711Z,14.73
2023-04-30T18:20:35.104Z,14.67
2023-04-30T18:23:10.594Z,14.52
2023-04-30T18:25:42.760Z,14.30
2023-04-30T18:28:11.355Z,14.14
2023-04-30T18:30:39.574Z,14.00
2023-04-30T18:33:09.469Z,13.97
2023-04-30T18:35:37.006Z,13.78
2023-04-30T18:38:04.921Z,13.67
2023-04-30T18:40:32.179Z,13.56
2023-04-30T18:43:02.527Z,13.44
2023-04-30T18:45:30.240Z,13.34
2023-04-30T18:47:58.910Z,13.30
2023-04-30T18:50:26.658Z,13.24
2023-04-30T18:52:54.858Z,13.16
2023-04-30T18:55:22.512Z,13.14
2023-04-30T18:57:51.027Z,13.08
2023-04-30T19:00:18.398Z,12.93
2023-04-30T19:02:46.446Z,12.75
2023-04-30T19:05:18.351Z,12.50
2023-04-30T19:07:47.677Z,12.04
2023-04-30T19:10:15.856Z,11.51
2023-04-30T19:12:44.755Z,10.95
2023-04-30T19:15:15.985Z,10.37
2023-04-30T19:17:45.317Z,9.95
2023-04-30T19:20:13.856Z,10.08
2023-04-30T19:22:45.122Z,9.64
2023-04-30T19:25:13.661Z,9.58
2023-04-30T19:27:41.582Z,9.71
2023-04-30T19:30:10.763Z,10.05
2023-04-30T19:32:38.746Z,10.52
2023-04-30T19:35:07.732Z,10.65
2023-04-30T19:37:38.236Z,10.65
2023-04-30T19:40:17.841Z,10.56
2023-04-30T19:42:48.470Z,10.42
2023-04-30T19:45:16.198Z,10.37
2023-04-30T19:47:46.470Z,10.23
2023-04-30T19:50:14.634Z,10.20
2023-04-30T19:52:42.702Z,10.08
2023-04-30T19:55:11.032Z,9.95
2023-04-30T19:57:39.330Z,9.73
2023-04-30T20:00:08.643Z,9.70
2023-04-30T20:02:37.433Z,9.57
2023-04-30T20:05:07.316Z,9.26
2023-04-30T20:07:34.956Z,9.28
2023-04-30T20:10:03.708Z,9.11
2023-04-30T20:12:31.347Z,8.74
2023-04-30T20:15:07.380Z,8.43
2023-04-30T20:17:36.452Z,8.12
2023-04-30T20:20:04.553Z,7.99
2023-04-30T20:22:32.894Z,7.87
2023-04-30T20:25:04.427Z,7.79
2023-04-30T20:27:35.628Z,7.76
2023-04-30T20:30:05.574Z,7.66
2023-04-30T20:32:35.789Z,7.33
2023-04-30T20:35:04.418Z,7.47
2023-04-30T20:37:34.648Z,7.50
2023-04-30T20:40:12.007Z,7.36
2023-04-30T20:42:41.188Z,7.24
2023-04-30T20:45:09.712Z,7.25
2023-04-30T20:47:37.434Z,7.12
2023-04-30T20:50:05.262Z,6.96
2023-04-30T20:52:34.184Z,6.97
2023-04-30T20:55:01.746Z,6.94
2023-04-30T20:57:29.588Z,7.09
2023-04-30T20:59:57.287Z,7.10
2023-04-30T21:02:24.803Z,6.94
2023-04-30T21:04:53.226Z,6.92
2023-04-30T21:07:20.866Z,6.87
2023-04-30T21:09:53.972Z,6.61
2023-04-30T21:12:23.479Z,6.12
2023-04-30T21:14:50.835Z,5.90
2023-04-30T21:17:20.474Z,5.62
2023-04-30T21:20:00.903Z,5.74
2023-04-30T21:22:29.091Z,5.73
2023-04-30T21:24:57.327Z,5.95
2023-04-30T21:27:24.948Z,5.93
2023-04-30T21:29:52.380Z,5.68
2023-04-30T21:32:20.186Z,5.62
2023-04-30T21:34:48.804Z,5.47
2023-04-30T21:37:22.787Z,5.48
2023-04-30T21:39:50.063Z,5.45
2023-04-30T21:42:19.552Z,5.40
2023-04-30T21:44:48.878Z,5.43
2023-04-30T21:47:16.933Z,5.49
2023-04-30T21:49:44.452Z,5.38
2023-04-30T21:52:12.879Z,5.53
2023-04-30T21:54:40.275Z,5.56
2023-04-30T21:57:07.763Z,5.54
2023-04-30T21:59:35.827Z,5.66
2023-04-30T22:02:13.040Z,5.72
2023-04-30T22:04:49.679Z,5.65
2023-04-30T22:07:18.071Z,5.76
2023-04-30T22:09:45.716Z,5.63
2023-04-30T22:12:13.976Z,5.32
2023-04-30T22:14:41.754Z,5.18
2023-04-30T22:17:08.925Z,5.12
2023-04-30T22:19:36.542Z,5.02
2023-04-30T22:22:03.861Z,4.80
2023-04-30T22:24:31.241Z,4.73
2023-04-30T22:26:58.777Z,4.63
2023-04-30T22:29:26.539Z,4.44
2023-04-30T22:31:54.244Z,4.44
2023-04-30T22:34:23.684Z,4.55
2023-04-30T22:36:51.020Z,4.42
2023-04-30T22:39:19.140Z,4.56
2023-04-30T22:41:46.822Z,4.59
2023-04-30T22:44:15.300Z,4.58
2023-04-30T22:46:43.796Z,4.36
2023-04-30T22:49:27.301Z,4.13
2023-04-30T22:52:01.126Z,4.16
2023-04-30T22:54:28.725Z,4.15
2023-04-30T22:56:58.744Z,3.92
2023-04-30T22:59:26.939Z,3.88
2023-04-30T23:01:54.565Z,3.76
2023-04-30T23:04:21.786Z,3.63
2023-04-30T23:06:49.575Z,3.36
2023-04-30T23:09:16.824Z,3.51
2023-04-30T23:11:45.115Z,3.77
2023-04-30T23:14:12.549Z,3.77
2023-04-30T23:16:42.821Z,3.82
2023-04-30T23:19:11.393Z,3.77
2023-04-30T23:21:38.901Z,3.69
2023-04-30T23:24:06.197Z,3.64
2023-04-30T23:26:33.903Z,3.64
2023-04-30T23:29:01.353Z,3.54
2023-04-30T23:31:28.948Z,3.55
2023-04-30T23:33:56.552Z,3.41
2023-04-30T23:36:31.722Z,3.41
2023-04-30T23:38:59.064Z,3.33
2023-04-30T23:41:27.032Z,3.44
2023-04-30T23:43:54.513Z,3.47
2023-04-30T23:46:22.960Z,3.52
2023-04-30T23:48:50.404Z,3.59
2023-04-30T23:51:19.121Z,3.62
2023-04-30T23:53:49.110Z,3.46
2023-04-30T23:56:18.557Z,3.40
2023-04-30T23:58:46.979Z,3.32
